Pagrindinis puslapis
METAR-TAF:

METAR-TAF

Oro uostai :

Akita, Japonija

platuma: 39-37N, ilguma: 140-13E, Aukštis: 93 m

Dabartinis oras

Ataskaita buvo paskelbta 57 minutes, ne 12:00 UTC
Vėjas 3 kt iš Šiaurės/Šiaurės Vakarų
Temperatūra -2°C
Drėgmė 74%
Slėgis 1028 hPa
Matomumas 10 km arba daugiau
Mažai debesys ne aukštis 4000 ft

METAR: RJSK 261200Z 33003KT 9999 FEW040 M02/M06 Q1028

Laikas: 21:57 (12:57 UTC)

Prognozė

Ataskaita buvo paskelbta 1 valandą ir 52 minutes, ne 11:05 UTC
Prognozė galioja nuo 26 metu 12 UTC su 27 metu 18 UTC
Vėjas 5 kt iš Šiaurės/Šiaurės Vakarų
Matomumas 10 km arba daugiau
Mažai debesys ne aukštis 2000 ft
Išsisklaidę debesys ne aukštis 4000 ft
Tapsmas
nuo 26 metu 12 UTC su 26 metu 14 UTC
Vėjas 4 kt iš Pietryčių

TAF: RJSK 261105Z 2612/2718 34005KT 9999 FEW020 SCT040 BECMG 2612/2614 14004KT

Orai ataskaitas ir orų prognozės (METAR, TAF).

turimą stotys yra geltonos ir raudonos taškus žemėlapyje.

Perkelti pele per norėdami pamatyti stoties vardą.

Tada spustelėkite, norėdami matyti oro stebėjimo ir prognozės.

Norėdami pakeisti žemėlapį: spustelėkite ant žalios mygtukų su juodo kryžiaus žemyn,; žalią mygtuką su brūkšneliu, jei norite nutolinti; arba žalių rodyklių gretimoms žemėlapius.


METAR-TAF: